Terminal Aerodrome Forecast
Issued by NWS

Current Version | Previous Version | Text Only | Print | Product List | Glossary Off
Versions: 1 2 3 4 5 6 7 8 9 10 11 12 13 14 15 16 17

087
FTUS41 KILN 212058 AAA
TAFLUK
TAF AMD
KLUK 212058Z 2121/2218 35012G20KT P6SM BKN045 OVC080
     FM220000 34007KT P6SM SCT080
     FM220300 00000KT P6SM SKC
      TEMPO 2209/2212 5SM BR
     FM221500 33008KT P6SM FEW080=

USA.gov is the U.S. government's official web portal to all federal, state and local government web resources and services.